createdAt,value
2023-03-16T00:00:53.215Z,2.40
2023-03-16T00:03:20.672Z,2.40
2023-03-16T00:05:47.993Z,2.40
2023-03-16T00:08:17.989Z,2.40
2023-03-16T00:10:46.923Z,2.40
2023-03-16T00:13:14.809Z,2.40
2023-03-16T00:15:41.790Z,2.30
2023-03-16T00:18:08.712Z,2.30
2023-03-16T00:20:35.733Z,2.30
2023-03-16T00:23:02.630Z,2.30
2023-03-16T00:25:33.490Z,2.20
2023-03-16T00:28:03.670Z,2.30
2023-03-16T00:30:31.403Z,2.20
2023-03-16T00:32:58.619Z,2.20
2023-03-16T00:35:25.593Z,2.20
2023-03-16T00:37:52.586Z,2.20
2023-03-16T00:40:19.678Z,2.20
2023-03-16T00:42:47.983Z,2.20
2023-03-16T00:45:15.163Z,2.20
2023-03-16T00:47:42.317Z,2.20
2023-03-16T00:50:10.120Z,2.20
2023-03-16T00:52:37.065Z,2.20
2023-03-16T00:55:04.873Z,2.20
2023-03-16T00:57:31.925Z,2.20
2023-03-16T01:00:00.393Z,2.10
2023-03-16T01:02:27.420Z,2.10
2023-03-16T01:04:54.795Z,2.10
2023-03-16T01:07:22.471Z,2.10
2023-03-16T01:09:51.045Z,2.10
2023-03-16T01:12:19.740Z,2.10
2023-03-16T01:14:47.158Z,2.00
2023-03-16T01:17:16.364Z,2.00
2023-03-16T01:19:43.842Z,2.00
2023-03-16T01:22:11.729Z,1.90
2023-03-16T01:24:40.547Z,1.80
2023-03-16T01:27:08.344Z,1.80
2023-03-16T01:29:35.908Z,1.80
2023-03-16T01:32:04.376Z,1.80
2023-03-16T01:34:34.108Z,1.80
2023-03-16T01:37:01.721Z,1.80
2023-03-16T01:39:50.051Z,1.80
2023-03-16T01:42:17.233Z,1.90
2023-03-16T01:44:54.421Z,1.80
2023-03-16T01:47:23.005Z,1.80
2023-03-16T01:49:54.969Z,1.90
2023-03-16T01:52:27.661Z,1.80
2023-03-16T01:54:58.833Z,1.90
2023-03-16T01:57:30.508Z,1.90
2023-03-16T02:00:20.019Z,1.90
2023-03-16T02:03:07.260Z,1.80
2023-03-16T02:05:52.886Z,1.80
2023-03-16T02:08:23.026Z,1.80
2023-03-16T02:10:50.651Z,1.80
2023-03-16T02:13:17.531Z,1.90
2023-03-16T02:15:44.958Z,1.90
2023-03-16T02:18:12.209Z,1.90
2023-03-16T02:20:48.525Z,1.90
2023-03-16T02:23:19.192Z,1.90
2023-03-16T02:25:53.430Z,1.90
2023-03-16T02:28:27.234Z,1.90
2023-03-16T02:30:55.767Z,1.90
2023-03-16T02:33:23.348Z,1.80
2023-03-16T02:35:50.975Z,1.70
2023-03-16T02:38:18.064Z,1.60
2023-03-16T02:40:58.262Z,1.50
2023-03-16T02:43:28.651Z,1.40
2023-03-16T02:46:06.682Z,1.40
2023-03-16T02:48:40.111Z,1.30
2023-03-16T02:51:07.237Z,1.40
2023-03-16T02:53:34.395Z,1.40
2023-03-16T02:56:02.886Z,1.40
2023-03-16T02:58:32.191Z,1.40
2023-03-16T03:01:01.518Z,1.40
2023-03-16T03:03:29.847Z,1.40
2023-03-16T03:05:58.416Z,1.30
2023-03-16T03:08:25.387Z,1.30
2023-03-16T03:10:53.244Z,1.30
2023-03-16T03:13:20.138Z,1.30
2023-03-16T03:15:47.132Z,1.30
2023-03-16T03:18:14.529Z,1.20
2023-03-16T03:20:42.970Z,1.20
2023-03-16T03:23:10.469Z,1.20
2023-03-16T03:25:37.385Z,1.10
2023-03-16T03:28:08.411Z,1.10
2023-03-16T03:30:35.971Z,1.10
2023-03-16T03:33:04.146Z,1.20
2023-03-16T03:35:31.722Z,1.20
2023-03-16T03:38:00.354Z,1.20
2023-03-16T03:40:28.033Z,1.30
2023-03-16T03:42:58.545Z,1.30
2023-03-16T03:45:25.959Z,1.20
2023-03-16T03:47:54.946Z,1.10
2023-03-16T03:50:22.941Z,1.10
2023-03-16T03:52:57.155Z,1.10
2023-03-16T03:55:25.631Z,1.10
2023-03-16T03:57:52.505Z,1.00
2023-03-16T04:00:23.031Z,1.00
2023-03-16T04:02:50.221Z,0.90
2023-03-16T04:05:33.299Z,0.80
2023-03-16T04:08:00.235Z,0.70
2023-03-16T04:10:30.324Z,0.70
2023-03-16T04:12:58.563Z,0.60
2023-03-16T04:15:26.614Z,0.60
2023-03-16T04:18:03.556Z,0.60
2023-03-16T04:20:30.571Z,0.60
2023-03-16T04:23:00.577Z,0.60
2023-03-16T04:25:30.657Z,0.60
2023-03-16T04:27:58.630Z,0.70
2023-03-16T04:30:30.962Z,0.70
2023-03-16T04:33:07.708Z,0.70
2023-03-16T04:35:34.616Z,0.70
2023-03-16T04:38:02.329Z,0.60
2023-03-16T04:40:39.783Z,0.60
2023-03-16T04:43:13.878Z,0.70
2023-03-16T04:45:42.207Z,0.70
2023-03-16T04:48:10.365Z,0.70
2023-03-16T04:50:38.191Z,0.70
2023-03-16T04:53:05.348Z,0.70
2023-03-16T04:55:33.097Z,0.70
2023-03-16T04:58:01.613Z,0.80
2023-03-16T05:00:33.550Z,0.80
2023-03-16T05:03:05.934Z,0.80
2023-03-16T05:05:33.142Z,0.80
2023-03-16T05:08:01.485Z,0.80
2023-03-16T05:10:30.560Z,0.80
2023-03-16T05:12:57.637Z,0.80
2023-03-16T05:15:25.974Z,0.80
2023-03-16T05:18:00.059Z,0.80
2023-03-16T05:20:27.414Z,0.90
2023-03-16T05:22:58.651Z,0.90
2023-03-16T05:25:34.770Z,0.90
2023-03-16T05:28:05.472Z,0.90
2023-03-16T05:30:54.117Z,1.00
2023-03-16T05:33:25.602Z,0.90
2023-03-16T05:35:58.696Z,0.90
2023-03-16T05:38:27.608Z,0.80
2023-03-16T05:40:55.427Z,0.80
2023-03-16T05:43:39.704Z,0.70
2023-03-16T05:46:08.015Z,0.70
2023-03-16T05:48:38.019Z,0.70
2023-03-16T05:51:06.434Z,0.80
2023-03-16T05:53:35.494Z,0.80
2023-03-16T05:56:11.830Z,0.80
2023-03-16T05:58:42.294Z,0.90
2023-03-16T06:01:13.201Z,0.90
2023-03-16T06:03:41.951Z,0.90
2023-03-16T06:06:12.362Z,1.00
2023-03-16T06:08:49.983Z,1.00
2023-03-16T06:11:18.879Z,1.10
2023-03-16T06:13:46.088Z,1.10
2023-03-16T06:16:16.777Z,1.10
2023-03-16T06:18:43.724Z,1.10
2023-03-16T06:21:11.145Z,1.10
2023-03-16T06:23:38.782Z,1.10
2023-03-16T06:26:07.491Z,1.10
2023-03-16T06:28:36.331Z,1.20
2023-03-16T06:31:03.330Z,1.20
2023-03-16T06:33:35.500Z,1.20
2023-03-16T06:36:03.412Z,1.30
2023-03-16T06:38:35.037Z,1.30
2023-03-16T06:41:09.845Z,1.30
2023-03-16T06:43:36.907Z,1.40
2023-03-16T06:46:04.377Z,1.30
2023-03-16T06:48:31.520Z,1.40
2023-03-16T06:50:59.873Z,1.50
2023-03-16T06:53:28.202Z,1.50
2023-03-16T06:55:56.386Z,1.60
2023-03-16T06:58:24.224Z,1.60
2023-03-16T07:00:53.906Z,1.70
2023-03-16T07:03:21.588Z,1.70
2023-03-16T07:05:54.606Z,1.80
2023-03-16T07:08:22.847Z,1.90
2023-03-16T07:10:51.470Z,2.00
2023-03-16T07:13:18.394Z,2.10
2023-03-16T07:15:45.329Z,2.20
2023-03-16T07:18:12.360Z,2.30
2023-03-16T07:20:39.482Z,2.40
2023-03-16T07:23:06.840Z,2.50
2023-03-16T07:25:37.014Z,2.50
2023-03-16T07:28:05.215Z,2.60
2023-03-16T07:30:38.022Z,2.70
2023-03-16T07:33:05.467Z,2.80
2023-03-16T07:35:33.302Z,2.90
2023-03-16T07:38:00.274Z,3.10
2023-03-16T07:40:27.427Z,3.20
2023-03-16T07:43:01.551Z,3.30
2023-03-16T07:45:35.099Z,3.50
2023-03-16T07:48:03.333Z,3.60
2023-03-16T07:50:44.172Z,3.80
2023-03-16T07:53:11.167Z,3.90
2023-03-16T07:55:40.307Z,4.00
2023-03-16T07:58:10.760Z,4.10
2023-03-16T08:00:42.368Z,4.10
2023-03-16T08:03:09.776Z,4.20
2023-03-16T08:05:36.971Z,4.50
2023-03-16T08:08:09.901Z,4.70
2023-03-16T08:10:38.285Z,5.10
2023-03-16T08:13:14.088Z,5.60
2023-03-16T08:15:46.608Z,6.20
2023-03-16T08:18:23.997Z,7.00
2023-03-16T08:20:52.142Z,8.10
2023-03-16T08:23:19.193Z,9.20
2023-03-16T08:25:47.862Z,10.10
2023-03-16T08:28:21.666Z,10.80
2023-03-16T08:30:51.040Z,11.70
2023-03-16T08:33:29.058Z,12.40
2023-03-16T08:35:56.862Z,12.80
2023-03-16T08:38:24.045Z,13.10
2023-03-16T08:40:52.115Z,13.70
2023-03-16T08:43:22.411Z,14.20
2023-03-16T08:45:50.789Z,14.30
2023-03-16T08:48:20.679Z,14.10
2023-03-16T08:50:49.841Z,14.20
2023-03-16T08:53:16.772Z,14.50
2023-03-16T08:55:44.023Z,14.50
2023-03-16T08:58:12.183Z,14.80
2023-03-16T09:00:41.185Z,15.10
2023-03-16T09:03:08.080Z,15.50
2023-03-16T09:05:34.952Z,15.60
2023-03-16T09:08:03.846Z,15.40
2023-03-16T09:10:32.364Z,15.60
2023-03-16T09:12:59.277Z,15.80
2023-03-16T09:15:26.807Z,15.90
2023-03-16T09:17:57.312Z,16.30
2023-03-16T09:20:30.150Z,16.60
2023-03-16T09:22:58.186Z,16.40
2023-03-16T09:25:28.319Z,16.90
2023-03-16T09:27:55.664Z,16.70
2023-03-16T09:30:22.656Z,16.80
2023-03-16T09:32:50.484Z,16.80
2023-03-16T09:35:19.538Z,17.00
2023-03-16T09:38:04.801Z,17.30
2023-03-16T09:40:33.345Z,17.50
2023-03-16T09:43:23.222Z,17.80
2023-03-16T09:46:00.142Z,18.30
2023-03-16T09:48:29.620Z,18.20
2023-03-16T09:51:00.858Z,18.30
2023-03-16T09:53:30.823Z,18.00
2023-03-16T09:56:01.860Z,17.90
2023-03-16T09:58:29.460Z,17.50
2023-03-16T10:01:05.840Z,15.70
2023-03-16T10:03:41.839Z,15.40
2023-03-16T10:06:13.752Z,15.20
2023-03-16T10:08:44.212Z,14.70
2023-03-16T10:11:24.927Z,14.70
2023-03-16T10:13:54.984Z,14.40
2023-03-16T10:16:28.252Z,14.10
2023-03-16T10:19:01.663Z,14.20
2023-03-16T10:21:33.303Z,14.40
2023-03-16T10:24:04.188Z,14.50
2023-03-16T10:26:39.049Z,14.90
2023-03-16T10:29:12.802Z,15.00
2023-03-16T10:31:41.496Z,14.70
2023-03-16T10:34:10.730Z,14.80
2023-03-16T10:36:43.926Z,15.10
2023-03-16T10:39:12.996Z,15.20
2023-03-16T10:41:43.159Z,15.40
2023-03-16T10:44:12.419Z,15.60
2023-03-16T10:46:41.578Z,15.90
2023-03-16T10:49:22.042Z,16.10
2023-03-16T10:51:51.323Z,15.80
2023-03-16T10:54:27.681Z,15.80
2023-03-16T10:56:55.411Z,16.00
2023-03-16T10:59:31.912Z,15.70
2023-03-16T11:01:59.685Z,15.60
2023-03-16T11:04:32.324Z,15.70
2023-03-16T11:07:00.624Z,15.90
2023-03-16T11:09:33.087Z,15.60
2023-03-16T11:12:01.072Z,15.60
2023-03-16T11:14:29.029Z,15.80
2023-03-16T11:17:02.573Z,16.00
2023-03-16T11:19:31.796Z,16.20
2023-03-16T11:22:03.889Z,16.30
2023-03-16T11:24:37.809Z,16.30
2023-03-16T11:27:09.427Z,16.10
2023-03-16T11:29:52.711Z,16.20
2023-03-16T11:32:25.570Z,16.50
2023-03-16T11:34:53.215Z,16.60
2023-03-16T11:37:32.617Z,16.20
2023-03-16T11:40:14.266Z,16.10
2023-03-16T11:42:51.488Z,15.80
2023-03-16T11:45:28.176Z,15.50
2023-03-16T11:48:16.968Z,15.70
2023-03-16T11:50:58.979Z,16.00
2023-03-16T11:53:42.784Z,15.90
2023-03-16T11:56:18.714Z,15.90
2023-03-16T11:59:30.964Z,16.10
2023-03-16T12:02:33.978Z,16.50
2023-03-16T12:05:24.123Z,16.70
2023-03-16T12:08:01.617Z,16.80
2023-03-16T12:10:33.878Z,16.60
2023-03-16T12:13:20.010Z,16.40
2023-03-16T12:15:51.527Z,16.20
2023-03-16T12:18:23.312Z,16.10
2023-03-16T12:20:57.385Z,15.90
2023-03-16T12:23:30.432Z,15.90
2023-03-16T12:26:04.148Z,16.20
2023-03-16T12:28:34.347Z,16.20
2023-03-16T12:31:12.151Z,15.80
2023-03-16T12:34:08.353Z,15.70
2023-03-16T12:37:02.749Z,15.90
2023-03-16T12:39:45.725Z,16.00
2023-03-16T12:42:28.062Z,16.30
2023-03-16T12:44:57.506Z,16.60
2023-03-16T12:47:31.268Z,16.70
2023-03-16T12:50:06.072Z,16.90
2023-03-16T12:52:40.803Z,17.10
2023-03-16T12:55:13.202Z,17.00
2023-03-16T12:57:42.756Z,16.60
2023-03-16T13:00:12.845Z,16.20
2023-03-16T13:02:44.770Z,15.90
2023-03-16T13:05:14.314Z,15.60
2023-03-16T13:07:47.779Z,15.70
2023-03-16T13:10:16.474Z,15.70
2023-03-16T13:12:46.226Z,15.90
2023-03-16T13:15:28.231Z,16.20
2023-03-16T13:18:05.243Z,16.10
2023-03-16T13:20:33.842Z,16.30
2023-03-16T13:23:18.370Z,16.40
2023-03-16T13:25:58.062Z,16.60
2023-03-16T13:28:31.484Z,16.20
2023-03-16T13:30:59.681Z,15.60
2023-03-16T13:33:29.666Z,15.20
2023-03-16T13:35:59.078Z,15.40
2023-03-16T13:38:28.534Z,15.60
2023-03-16T13:40:57.859Z,15.60
2023-03-16T13:43:37.135Z,15.50
2023-03-16T13:46:14.644Z,15.10
2023-03-16T13:48:41.832Z,14.70
2023-03-16T13:51:15.683Z,14.60
2023-03-16T13:53:43.960Z,14.50
2023-03-16T13:56:14.766Z,14.50
2023-03-16T13:58:46.088Z,14.30
2023-03-16T14:01:20.605Z,14.60
2023-03-16T14:03:48.331Z,14.60
2023-03-16T14:06:22.761Z,14.60
2023-03-16T14:08:53.455Z,14.80
2023-03-16T14:11:20.769Z,14.80
2023-03-16T14:13:53.864Z,14.70
2023-03-16T14:16:24.212Z,14.70
2023-03-16T14:18:55.956Z,14.80
2023-03-16T14:21:25.720Z,14.80
2023-03-16T14:23:57.006Z,14.90
2023-03-16T14:26:24.418Z,14.80
2023-03-16T14:28:58.360Z,14.70
2023-03-16T14:31:33.436Z,14.40
2023-03-16T14:34:02.589Z,14.40
2023-03-16T14:36:36.107Z,14.30
2023-03-16T14:39:11.242Z,14.10
2023-03-16T14:41:39.828Z,13.90
2023-03-16T14:44:18.762Z,13.90
2023-03-16T14:46:45.805Z,13.90
2023-03-16T14:49:21.001Z,14.00
2023-03-16T14:51:49.871Z,13.80
2023-03-16T14:54:18.988Z,13.60
2023-03-16T14:56:48.608Z,13.50
2023-03-16T14:59:18.303Z,13.60
2023-03-16T15:01:46.562Z,13.80
2023-03-16T15:04:16.170Z,13.90
2023-03-16T15:06:43.253Z,13.90
2023-03-16T15:09:28.880Z,13.80
2023-03-16T15:11:57.791Z,13.70
2023-03-16T15:14:44.745Z,13.50
2023-03-16T15:17:11.761Z,13.40
2023-03-16T15:19:38.810Z,13.30
2023-03-16T15:22:07.005Z,13.20
2023-03-16T15:24:34.100Z,13.20
2023-03-16T15:27:01.075Z,13.30
2023-03-16T15:29:29.455Z,13.20
2023-03-16T15:31:56.247Z,13.10
2023-03-16T15:34:23.082Z,13.10
2023-03-16T15:36:49.952Z,13.10
2023-03-16T15:39:22.826Z,13.00
2023-03-16T15:41:50.506Z,13.00
2023-03-16T15:44:17.451Z,12.90
2023-03-16T15:46:45.807Z,12.90
2023-03-16T15:49:12.797Z,13.00
2023-03-16T15:51:40.090Z,12.90
2023-03-16T15:54:08.516Z,12.90
2023-03-16T15:56:52.669Z,12.80
2023-03-16T15:59:22.056Z,12.90
2023-03-16T16:01:51.708Z,12.90
2023-03-16T16:04:20.400Z,12.90
2023-03-16T16:06:48.281Z,12.80
2023-03-16T16:09:15.767Z,12.80
2023-03-16T16:11:42.605Z,12.70
2023-03-16T16:14:12.183Z,12.50
2023-03-16T16:16:40.684Z,12.50
2023-03-16T16:19:12.907Z,12.40
2023-03-16T16:21:39.772Z,12.40
2023-03-16T16:24:08.230Z,12.40
2023-03-16T16:26:49.044Z,12.30
2023-03-16T16:29:22.187Z,12.30
2023-03-16T16:31:49.167Z,12.30
2023-03-16T16:34:21.472Z,12.30
2023-03-16T16:36:48.613Z,12.20
2023-03-16T16:39:15.658Z,12.20
2023-03-16T16:41:43.488Z,12.20
2023-03-16T16:44:16.999Z,12.10
2023-03-16T16:46:43.952Z,12.00
2023-03-16T16:49:15.265Z,12.00
2023-03-16T16:51:43.772Z,11.90
2023-03-16T16:54:15.811Z,11.80
2023-03-16T16:56:43.149Z,11.80
2023-03-16T16:59:17.517Z,11.70
2023-03-16T17:01:45.210Z,11.60
2023-03-16T17:04:15.820Z,11.50
2023-03-16T17:06:44.426Z,11.50
2023-03-16T17:09:14.219Z,11.50
2023-03-16T17:11:43.556Z,11.40
2023-03-16T17:14:16.874Z,11.40
2023-03-16T17:16:44.614Z,11.30
2023-03-16T17:19:19.697Z,11.30
2023-03-16T17:21:48.794Z,11.30
2023-03-16T17:24:16.657Z,11.20
2023-03-16T17:26:46.655Z,11.20
2023-03-16T17:29:18.737Z,11.10
2023-03-16T17:31:45.514Z,11.10
2023-03-16T17:34:16.776Z,11.00
2023-03-16T17:36:43.779Z,11.00
2023-03-16T17:39:17.467Z,11.10
2023-03-16T17:41:44.989Z,11.10
2023-03-16T17:44:14.491Z,11.10
2023-03-16T17:46:41.493Z,11.00
2023-03-16T17:49:12.086Z,11.00
2023-03-16T17:51:40.460Z,10.90
2023-03-16T17:54:07.723Z,10.90
2023-03-16T17:56:37.458Z,10.90
2023-03-16T17:59:06.809Z,10.80
2023-03-16T18:01:34.291Z,10.80
2023-03-16T18:04:02.117Z,10.70
2023-03-16T18:06:30.311Z,10.60
2023-03-16T18:08:57.949Z,10.50
2023-03-16T18:11:29.422Z,10.50
2023-03-16T18:13:58.073Z,10.40
2023-03-16T18:16:28.576Z,10.30
2023-03-16T18:18:59.020Z,10.30
2023-03-16T18:21:26.598Z,10.20
2023-03-16T18:23:54.039Z,10.20
2023-03-16T18:26:21.722Z,10.20
2023-03-16T18:28:48.551Z,10.20
2023-03-16T18:31:21.969Z,10.20
2023-03-16T18:33:51.017Z,10.20
2023-03-16T18:36:19.924Z,10.10
2023-03-16T18:38:50.405Z,10.10
2023-03-16T18:41:19.577Z,10.00
2023-03-16T18:43:46.695Z,10.00
2023-03-16T18:46:22.926Z,10.00
2023-03-16T18:48:50.793Z,9.90
2023-03-16T18:51:18.235Z,9.90
2023-03-16T18:53:45.138Z,9.80
2023-03-16T18:56:18.178Z,9.80
2023-03-16T18:58:45.700Z,9.70
2023-03-16T19:01:23.865Z,9.70
2023-03-16T19:03:52.505Z,9.60
2023-03-16T19:06:24.856Z,9.60
2023-03-16T19:08:52.066Z,9.60
2023-03-16T19:11:19.158Z,9.50
2023-03-16T19:13:46.220Z,9.50
2023-03-16T19:16:16.581Z,9.60
2023-03-16T19:18:45.327Z,9.60
2023-03-16T19:21:15.835Z,9.60
2023-03-16T19:23:44.041Z,9.60
2023-03-16T19:26:11.594Z,9.50
2023-03-16T19:28:39.823Z,9.50
2023-03-16T19:31:15.395Z,9.40
2023-03-16T19:33:43.846Z,9.40
2023-03-16T19:36:16.142Z,9.30
2023-03-16T19:38:43.223Z,9.20
2023-03-16T19:41:21.225Z,9.20
2023-03-16T19:43:48.329Z,9.20
2023-03-16T19:46:15.706Z,9.20
2023-03-16T19:48:44.367Z,9.30
2023-03-16T19:51:13.404Z,9.30
2023-03-16T19:53:40.944Z,9.30
2023-03-16T19:56:13.279Z,9.30
2023-03-16T19:58:41.505Z,9.30
2023-03-16T20:01:17.442Z,9.30
2023-03-16T20:03:47.676Z,9.30
2023-03-16T20:06:15.981Z,9.20
2023-03-16T20:08:44.071Z,9.10
2023-03-16T20:11:17.505Z,9.10
2023-03-16T20:13:45.363Z,9.10
2023-03-16T20:16:16.878Z,9.10
2023-03-16T20:18:47.097Z,8.90
2023-03-16T20:21:16.037Z,8.80
2023-03-16T20:23:43.400Z,8.80
2023-03-16T20:26:17.485Z,8.80
2023-03-16T20:28:44.962Z,8.90
2023-03-16T20:31:19.562Z,8.90
2023-03-16T20:33:48.609Z,8.90
2023-03-16T20:36:16.556Z,8.90
2023-03-16T20:38:43.725Z,8.90
2023-03-16T20:41:16.527Z,8.90
2023-03-16T20:43:44.057Z,8.90
2023-03-16T20:46:16.988Z,8.90
2023-03-16T20:48:43.965Z,8.80
2023-03-16T20:51:15.447Z,8.80
2023-03-16T20:53:43.757Z,8.70
2023-03-16T20:56:15.575Z,8.60
2023-03-16T20:58:44.538Z,8.60
2023-03-16T21:01:18.342Z,8.50
2023-03-16T21:03:49.023Z,8.50
2023-03-16T21:06:23.641Z,8.40
2023-03-16T21:08:52.005Z,8.40
2023-03-16T21:11:23.069Z,8.40
2023-03-16T21:13:50.844Z,8.40
2023-03-16T21:16:18.505Z,8.50
2023-03-16T21:18:45.567Z,8.40
2023-03-16T21:21:14.718Z,8.40
2023-03-16T21:23:43.685Z,8.30
2023-03-16T21:26:15.971Z,8.30
2023-03-16T21:28:44.497Z,8.30
2023-03-16T21:31:19.524Z,8.30
2023-03-16T21:33:46.845Z,8.30
2023-03-16T21:36:16.844Z,8.20
2023-03-16T21:38:45.927Z,8.20
2023-03-16T21:41:13.991Z,8.20
2023-03-16T21:43:41.730Z,8.20
2023-03-16T21:46:14.995Z,8.10
2023-03-16T21:48:42.863Z,8.10
2023-03-16T21:51:14.680Z,8.10
2023-03-16T21:53:41.809Z,8.00
2023-03-16T21:56:15.679Z,8.00
2023-03-16T21:58:42.714Z,8.00
2023-03-16T22:01:22.346Z,8.00
2023-03-16T22:03:53.107Z,8.00
2023-03-16T22:06:21.069Z,7.90
2023-03-16T22:08:49.111Z,7.90
2023-03-16T22:11:19.116Z,7.90
2023-03-16T22:13:46.434Z,7.90
2023-03-16T22:16:17.109Z,7.90
2023-03-16T22:18:45.800Z,7.90
2023-03-16T22:21:24.854Z,7.90
2023-03-16T22:23:51.946Z,7.90
2023-03-16T22:26:22.507Z,7.90
2023-03-16T22:28:50.735Z,7.80
2023-03-16T22:31:20.847Z,7.80
2023-03-16T22:33:48.695Z,7.80
2023-03-16T22:36:19.545Z,7.80
2023-03-16T22:38:48.792Z,7.80
2023-03-16T22:41:17.940Z,7.80
2023-03-16T22:43:46.083Z,7.80
2023-03-16T22:46:19.300Z,7.80
2023-03-16T22:48:46.514Z,7.80
2023-03-16T22:51:22.785Z,7.80
2023-03-16T22:53:52.302Z,7.70
2023-03-16T22:56:20.065Z,7.70
2023-03-16T22:58:51.506Z,7.70
2023-03-16T23:01:20.854Z,7.70
2023-03-16T23:03:49.906Z,7.60
2023-03-16T23:06:19.797Z,7.60
2023-03-16T23:08:46.879Z,7.60
2023-03-16T23:11:16.657Z,7.50
2023-03-16T23:13:44.025Z,7.50
2023-03-16T23:16:18.599Z,7.50
2023-03-16T23:18:45.515Z,7.40
2023-03-16T23:21:14.096Z,7.40
2023-03-16T23:23:43.041Z,7.30
2023-03-16T23:26:16.569Z,7.30
2023-03-16T23:28:43.984Z,7.30
2023-03-16T23:31:12.379Z,7.20
2023-03-16T23:33:41.530Z,7.20
2023-03-16T23:36:14.236Z,7.20
2023-03-16T23:38:41.250Z,7.10
2023-03-16T23:41:08.905Z,7.10
2023-03-16T23:43:35.839Z,7.10
2023-03-16T23:46:03.550Z,7.00
2023-03-16T23:48:32.794Z,7.00
2023-03-16T23:51:02.526Z,6.90
2023-03-16T23:53:29.646Z,6.90
2023-03-16T23:55:56.900Z,6.90
2023-03-16T23:58:24.091Z,6.80
